createdAt,value
2023-06-14T00:00:34.747Z,0
2023-06-14T00:01:50.943Z,0
2023-06-14T00:02:44.000Z,0
2023-06-14T00:04:00.000Z,0
2023-06-14T00:05:16.000Z,0
2023-06-14T00:06:33.000Z,0
2023-06-14T00:07:49.000Z,0
2023-06-14T00:09:05.000Z,0
2023-06-14T00:10:21.000Z,0
2023-06-14T00:11:37.000Z,0
2023-06-14T00:13:16.959Z,0
2023-06-14T00:14:10.000Z,0
2023-06-14T00:15:25.000Z,0
2023-06-14T00:17:04.310Z,0
2023-06-14T00:17:57.000Z,0
2023-06-14T00:19:36.702Z,0
2023-06-14T00:20:30.000Z,0
2023-06-14T00:21:46.000Z,0
2023-06-14T00:23:02.000Z,0
2023-06-14T00:24:41.485Z,0
2023-06-14T00:25:57.682Z,0
2023-06-14T00:26:51.000Z,0
2023-06-14T00:28:30.073Z,0
2023-06-14T00:29:23.000Z,0
2023-06-14T00:31:02.465Z,0
2023-06-14T00:31:55.000Z,0
2023-06-14T00:33:11.000Z,0
2023-06-14T00:34:27.000Z,0
2023-06-14T00:36:06.266Z,0
2023-06-14T00:36:59.000Z,0
2023-06-14T00:38:38.659Z,0
2023-06-14T00:39:32.000Z,0
2023-06-14T00:40:48.000Z,0
2023-06-14T00:42:04.000Z,0
2023-06-14T00:43:43.442Z,0
2023-06-14T00:44:37.000Z,0
2023-06-14T00:46:15.835Z,0
2023-06-14T00:47:32.031Z,0
2023-06-14T00:48:24.000Z,0
2023-06-14T00:49:40.000Z,0
2023-06-14T00:50:57.000Z,0
2023-06-14T00:51:42.000Z,0
2023-06-14T00:52:13.000Z,0
2023-06-14T00:53:29.000Z,0
2023-06-14T00:54:45.000Z,0
2023-06-14T00:56:01.000Z,0
2023-06-14T00:57:40.614Z,0
2023-06-14T00:59:50.000Z,0
2023-06-14T01:01:06.000Z,0
2023-06-14T01:02:22.000Z,0
2023-06-14T01:04:01.594Z,0
2023-06-14T01:04:54.000Z,0
2023-06-14T01:06:33.002Z,0
2023-06-14T01:07:49.198Z,0
2023-06-14T01:08:42.000Z,0
2023-06-14T01:09:59.000Z,0
2023-06-14T01:11:15.000Z,0
2023-06-14T01:12:53.982Z,0
2023-06-14T01:14:10.178Z,0
2023-06-14T01:14:33.000Z,0
2023-06-14T01:15:03.000Z,0
2023-06-14T01:16:19.000Z,0
2023-06-14T01:17:58.765Z,0
2023-06-14T01:18:52.000Z,0
2023-06-14T01:20:31.157Z,0
2023-06-14T01:20:53.000Z,0
2023-06-14T01:22:39.000Z,0
2023-06-14T01:23:56.189Z,0
2023-06-14T01:25:34.957Z,0
2023-06-14T01:26:51.153Z,0
2023-06-14T01:29:23.544Z,0
2023-06-14T01:29:46.000Z,0
2023-06-14T01:30:17.000Z,0
2023-06-14T01:31:33.000Z,0
2023-06-14T01:33:12.132Z,0
2023-06-14T01:34:28.328Z,0
2023-06-14T01:35:21.000Z,0
2023-06-14T01:37:54.000Z,0
2023-06-14T01:39:09.000Z,0
2023-06-14T01:40:48.322Z,0
2023-06-14T01:41:41.000Z,0
2023-06-14T01:43:20.714Z,0
2023-06-14T01:44:36.910Z,0
2023-06-14T01:45:29.000Z,0
2023-06-14T01:47:08.324Z,0
2023-06-14T01:48:01.000Z,0
2023-06-14T01:49:40.715Z,0
2023-06-14T01:50:34.000Z,0
2023-06-14T01:52:13.107Z,0
2023-06-14T01:53:06.000Z,0
2023-06-14T01:54:22.000Z,0
2023-06-14T01:55:39.000Z,0
2023-06-14T01:56:55.000Z,0
2023-06-14T01:58:11.000Z,0
2023-06-14T01:59:50.281Z,0
2023-06-14T02:01:06.477Z,0
2023-06-14T02:01:59.000Z,0
2023-06-14T02:03:15.000Z,0
2023-06-14T02:04:31.000Z,0
2023-06-14T02:05:47.000Z,0
2023-06-14T02:06:33.000Z,0
2023-06-14T02:07:26.474Z,0
2023-06-14T02:08:20.000Z,0
2023-06-14T02:09:58.865Z,0
2023-06-14T02:10:52.000Z,0
2023-06-14T02:12:08.000Z,0
2023-06-14T02:15:03.650Z,0
2023-06-14T02:15:57.000Z,0
2023-06-14T02:17:36.042Z,0
2023-06-14T02:18:28.000Z,0
2023-06-14T02:19:44.000Z,0
2023-06-14T02:21:23.645Z,0
2023-06-14T02:22:39.841Z,0
2023-06-14T02:23:56.036Z,0
2023-06-14T02:24:49.000Z,0
2023-06-14T02:25:35.000Z,0
2023-06-14T02:26:28.428Z,0
2023-06-14T02:27:22.000Z,0
2023-06-14T02:29:00.815Z,0
2023-06-14T02:30:17.009Z,0
2023-06-14T02:31:10.000Z,0
2023-06-14T02:33:42.000Z,0
2023-06-14T02:34:58.000Z,0
2023-06-14T02:36:14.000Z,0
2023-06-14T02:37:30.000Z,0
2023-06-14T02:38:46.000Z,0
2023-06-14T02:40:02.000Z,4
2023-06-14T02:41:41.768Z,4
2023-06-14T02:42:57.962Z,0
2023-06-14T02:44:14.155Z,0
2023-06-14T02:44:36.000Z,8
2023-06-14T02:45:30.349Z,4
2023-06-14T02:45:52.000Z,8
2023-06-14T02:46:23.000Z,4
2023-06-14T02:48:02.737Z,4
2023-06-14T02:49:18.931Z,8
2023-06-14T02:50:12.000Z,8
2023-06-14T02:54:00.000Z,8
2023-06-14T02:55:38.915Z,12
2023-06-14T02:56:55.109Z,16
2023-06-14T02:57:48.000Z,16
2023-06-14T02:59:04.000Z,16
2023-06-14T03:00:21.000Z,24
2023-06-14T03:01:37.000Z,24
2023-06-14T03:02:53.000Z,28
2023-06-14T03:04:32.271Z,32
2023-06-14T03:05:25.000Z,36
2023-06-14T03:06:42.000Z,40
2023-06-14T03:07:57.000Z,48
2023-06-14T03:09:13.000Z,52
2023-06-14T03:10:52.256Z,60
2023-06-14T03:11:45.000Z,68
2023-06-14T03:12:31.000Z,124
2023-06-14T03:13:02.000Z,72
2023-06-14T03:14:18.000Z,80
2023-06-14T03:15:57.031Z,92
2023-06-14T03:16:50.000Z,100
2023-06-14T03:18:06.000Z,112
2023-06-14T03:20:39.000Z,136
2023-06-14T03:22:18.000Z,148
2023-06-14T03:23:11.000Z,160
2023-06-14T03:24:26.000Z,176
2023-06-14T03:25:42.000Z,192
2023-06-14T03:26:59.000Z,208
2023-06-14T03:28:15.000Z,224
2023-06-14T03:29:31.000Z,236
2023-06-14T03:30:47.000Z,256
2023-06-14T03:32:26.567Z,276
2023-06-14T03:33:20.000Z,296
2023-06-14T03:34:36.000Z,316
2023-06-14T03:35:52.000Z,336
2023-06-14T03:37:08.000Z,356
2023-06-14T03:38:47.535Z,380
2023-06-14T03:39:41.000Z,404
2023-06-14T03:40:57.000Z,428
2023-06-14T03:42:12.000Z,448
2023-06-14T03:43:28.000Z,472
2023-06-14T03:44:44.000Z,496
2023-06-14T03:46:01.000Z,520
2023-06-14T03:47:17.000Z,548
2023-06-14T03:48:33.000Z,576
2023-06-14T03:49:49.000Z,604
2023-06-14T03:51:05.000Z,636
2023-06-14T03:52:22.000Z,664
2023-06-14T03:54:00.877Z,696
2023-06-14T03:54:22.000Z,876
2023-06-14T03:54:54.000Z,728
2023-06-14T03:55:38.000Z,904
2023-06-14T03:56:33.264Z,756
2023-06-14T03:57:49.458Z,788
2023-06-14T03:58:42.000Z,816
2023-06-14T03:59:58.000Z,848
2023-06-14T04:03:46.000Z,928
2023-06-14T04:05:25.637Z,960
2023-06-14T04:06:19.000Z,984
2023-06-14T04:07:35.000Z,1008
2023-06-14T04:09:14.217Z,1028
2023-06-14T04:10:07.000Z,1056
2023-06-14T04:11:23.000Z,1076
2023-06-14T04:12:40.000Z,1100
2023-06-14T04:13:24.000Z,1244
2023-06-14T04:13:56.000Z,1116
2023-06-14T04:15:11.000Z,1136
2023-06-14T04:16:27.000Z,1168
2023-06-14T04:17:43.000Z,1212
2023-06-14T04:19:00.000Z,1228
2023-06-14T04:21:55.173Z,1264
2023-06-14T04:22:48.000Z,1296
2023-06-14T04:23:34.000Z,1464
2023-06-14T04:24:27.560Z,1320
2023-06-14T04:25:21.000Z,1348
2023-06-14T04:26:37.000Z,1380
2023-06-14T04:27:21.000Z,1524
2023-06-14T04:27:53.000Z,1412
2023-06-14T04:29:32.336Z,1436
2023-06-14T04:32:03.740Z,1476
2023-06-14T04:32:57.000Z,1500
2023-06-14T04:35:29.000Z,1552
2023-06-14T04:36:45.000Z,1572
2023-06-14T04:38:24.707Z,1616
2023-06-14T04:38:47.000Z,1708
2023-06-14T04:39:40.901Z,1628
2023-06-14T04:40:34.000Z,1628
2023-06-14T04:41:50.000Z,1652
2023-06-14T04:43:06.000Z,1676
2023-06-14T04:44:23.000Z,1688
2023-06-14T04:47:18.062Z,1732
2023-06-14T04:48:33.272Z,1748
2023-06-14T04:49:26.000Z,1768
2023-06-14T04:51:05.661Z,1788
2023-06-14T04:51:59.000Z,1808
2023-06-14T04:53:38.049Z,1828
2023-06-14T04:54:00.000Z,1964
2023-06-14T04:54:54.242Z,1848
2023-06-14T04:56:10.436Z,1872
2023-06-14T04:57:03.000Z,1892
2023-06-14T04:58:20.000Z,1912
2023-06-14T04:59:36.000Z,1940
2023-06-14T05:02:31.405Z,1996
2023-06-14T05:03:24.000Z,2020
2023-06-14T05:04:40.000Z,2052
2023-06-14T05:05:56.000Z,2080
2023-06-14T05:07:35.195Z,2108
2023-06-14T05:08:28.000Z,2140
2023-06-14T05:10:07.582Z,2240
2023-06-14T05:11:01.000Z,2332
2023-06-14T05:12:17.000Z,2436
2023-06-14T05:13:56.163Z,2556
2023-06-14T05:14:49.000Z,3184
2023-06-14T05:16:05.000Z,3620
2023-06-14T05:17:44.744Z,5868
2023-06-14T05:18:06.000Z,4292
2023-06-14T05:18:38.000Z,8176
2023-06-14T05:19:54.000Z,5752
2023-06-14T05:21:32.341Z,6780
2023-06-14T05:22:25.000Z,7932
2023-06-14T05:23:42.000Z,5188
2023-06-14T05:26:14.000Z,6592
2023-06-14T05:27:30.000Z,8568
2023-06-14T05:28:46.000Z,5700
2023-06-14T05:30:03.000Z,6396
2023-06-14T05:31:19.000Z,7012
2023-06-14T05:32:58.085Z,5344
2023-06-14T05:33:51.000Z,4928
2023-06-14T05:35:07.000Z,4452
2023-06-14T05:36:24.000Z,4244
2023-06-14T05:38:01.876Z,2880
2023-06-14T05:39:18.069Z,3288
2023-06-14T05:40:34.263Z,3540
2023-06-14T05:41:50.457Z,2872
2023-06-14T05:42:43.000Z,2888
2023-06-14T05:44:00.000Z,3288
2023-06-14T05:45:16.000Z,2988
2023-06-14T05:46:55.231Z,3172
2023-06-14T05:48:11.424Z,3872
2023-06-14T05:49:27.618Z,3880
2023-06-14T05:50:21.000Z,3272
2023-06-14T05:51:37.000Z,3848
2023-06-14T05:52:53.000Z,3812
2023-06-14T05:54:08.000Z,3272
2023-06-14T05:55:24.000Z,3616
2023-06-14T05:56:41.000Z,4228
2023-06-14T05:57:57.000Z,6320
2023-06-14T05:59:13.000Z,6740
2023-06-14T06:00:28.000Z,8652
2023-06-14T06:02:07.593Z,15200
2023-06-14T06:03:01.000Z,22368
2023-06-14T06:04:17.000Z,30528
2023-06-14T06:05:56.174Z,29792
2023-06-14T06:06:49.000Z,30496
2023-06-14T06:08:05.000Z,32032
2023-06-14T06:09:22.000Z,33792
2023-06-14T06:11:00.948Z,32256
2023-06-14T06:11:54.000Z,31680
2023-06-14T06:13:10.000Z,36192
2023-06-14T06:14:49.530Z,37536
2023-06-14T06:15:43.000Z,37056
2023-06-14T06:16:58.000Z,37376
2023-06-14T06:18:37.128Z,38656
2023-06-14T06:19:53.569Z,39744
2023-06-14T06:20:46.000Z,37440
2023-06-14T06:22:03.000Z,37824
2023-06-14T06:23:42.151Z,41568
2023-06-14T06:24:35.000Z,41888
2023-06-14T06:25:51.000Z,40544
2023-06-14T06:27:07.000Z,40128
2023-06-14T06:28:23.000Z,40480
2023-06-14T06:30:02.874Z,41952
2023-06-14T06:30:56.000Z,43488
2023-06-14T06:32:12.000Z,40608
2023-06-14T06:33:50.472Z,42464
2023-06-14T06:34:13.000Z,48544
2023-06-14T06:34:43.000Z,44704
2023-06-14T06:35:29.000Z,51360
2023-06-14T06:36:00.000Z,44032
2023-06-14T06:37:16.000Z,44064
2023-06-14T06:38:32.000Z,47296
2023-06-14T06:39:48.000Z,47488
2023-06-14T06:43:37.000Z,48960
2023-06-14T06:44:53.000Z,47136
2023-06-14T06:46:09.000Z,42688
2023-06-14T06:47:48.607Z,33344
2023-06-14T06:49:04.801Z,31008
2023-06-14T06:50:20.011Z,30880
2023-06-14T06:51:13.000Z,31680
2023-06-14T06:52:52.401Z,34240
2023-06-14T06:53:45.000Z,34976
2023-06-14T06:55:02.000Z,35200
2023-06-14T06:56:40.984Z,34368
2023-06-14T06:57:34.000Z,34624
2023-06-14T06:58:50.000Z,22144
2023-06-14T07:00:06.000Z,6208
2023-06-14T07:01:45.762Z,4232
2023-06-14T07:02:39.000Z,3960
2023-06-14T07:04:18.393Z,3844
2023-06-14T07:05:11.000Z,3660
2023-06-14T07:06:49.556Z,3468
2023-06-14T07:08:06.001Z,3344
2023-06-14T07:09:22.187Z,3272
2023-06-14T07:10:15.000Z,3228
2023-06-14T07:11:54.331Z,3192
2023-06-14T07:12:47.000Z,3156
2023-06-14T07:14:26.719Z,3108
2023-06-14T07:15:42.913Z,3076
2023-06-14T07:16:36.000Z,3024
2023-06-14T07:17:52.000Z,2976
2023-06-14T07:19:08.000Z,2952
2023-06-14T07:20:47.689Z,2936
2023-06-14T07:21:41.000Z,2924
2023-06-14T07:22:25.000Z,2852
2023-06-14T07:23:19.093Z,2920
2023-06-14T07:24:35.288Z,2908
2023-06-14T07:25:28.000Z,2896
2023-06-14T07:27:07.928Z,2872
2023-06-14T07:28:01.000Z,2856
2023-06-14T07:28:46.000Z,2788
2023-06-14T07:30:33.000Z,2836
2023-06-14T07:32:12.692Z,2840
2023-06-14T07:33:05.000Z,2820
2023-06-14T07:34:44.839Z,2800
2023-06-14T07:36:54.000Z,2792
2023-06-14T07:38:10.000Z,2788
2023-06-14T07:39:48.631Z,2784
2023-06-14T07:40:42.000Z,2804
2023-06-14T07:42:21.017Z,2800
2023-06-14T07:43:14.000Z,2784
2023-06-14T07:44:53.645Z,2772
2023-06-14T07:45:46.000Z,2760
2023-06-14T07:47:03.000Z,2752
2023-06-14T07:48:41.987Z,2740
2023-06-14T07:49:03.000Z,2696
2023-06-14T07:49:35.000Z,2732
2023-06-14T07:50:51.000Z,2720
2023-06-14T07:52:30.568Z,2684
2023-06-14T07:53:47.004Z,2684
2023-06-14T07:55:02.956Z,2680
2023-06-14T07:57:11.000Z,2700
2023-06-14T07:58:50.554Z,2696
2023-06-14T08:00:06.999Z,2712
2023-06-14T08:01:00.000Z,2668
2023-06-14T08:02:16.000Z,2672
2023-06-14T08:03:55.329Z,2656
2023-06-14T08:05:11.773Z,2656
2023-06-14T08:06:04.000Z,2632
2023-06-14T08:06:49.000Z,2624
2023-06-14T08:07:21.000Z,2652
2023-06-14T08:09:00.105Z,2660
2023-06-14T08:09:53.000Z,2648
2023-06-14T08:11:09.000Z,2656
2023-06-14T08:12:24.000Z,2644
2023-06-14T08:15:20.090Z,2628
2023-06-14T08:16:36.284Z,2624
2023-06-14T08:17:29.000Z,2632
2023-06-14T08:18:45.000Z,2616
2023-06-14T08:20:25.106Z,2616
2023-06-14T08:21:41.058Z,2604
2023-06-14T08:22:34.000Z,2584
2023-06-14T08:24:13.446Z,2548
2023-06-14T08:25:06.000Z,2532
2023-06-14T08:26:23.000Z,2516
2023-06-14T08:28:02.027Z,2480
2023-06-14T08:28:54.000Z,2480
2023-06-14T08:30:33.432Z,2476
2023-06-14T08:31:49.868Z,2460
2023-06-14T08:32:43.000Z,2448
2023-06-14T08:34:22.013Z,2436
2023-06-14T08:35:38.207Z,2408
2023-06-14T08:36:31.000Z,2432
2023-06-14T08:38:10.837Z,2428
2023-06-14T08:39:04.000Z,2416
2023-06-14T08:40:42.982Z,2436
2023-06-14T08:41:36.000Z,2436
2023-06-14T08:44:08.000Z,2740
2023-06-14T08:45:24.000Z,2732
2023-06-14T08:46:40.000Z,2736
2023-06-14T08:48:19.161Z,2732
2023-06-14T08:49:12.000Z,2736
2023-06-14T08:50:28.000Z,2720
2023-06-14T08:52:07.742Z,2736
2023-06-14T08:53:01.195Z,2740
2023-06-14T08:54:17.000Z,2716
2023-06-14T08:55:33.000Z,2696
2023-06-14T08:56:49.000Z,2668
2023-06-14T08:58:28.710Z,2660
2023-06-14T08:59:22.000Z,2676
2023-06-14T09:01:01.098Z,2684
2023-06-14T09:01:53.000Z,2712
2023-06-14T09:03:09.000Z,2740
2023-06-14T09:04:25.000Z,2780
2023-06-14T09:06:04.890Z,2820
2023-06-14T09:06:58.000Z,2848
2023-06-14T09:08:37.277Z,2856
2023-06-14T09:09:53.471Z,2872
2023-06-14T09:11:09.664Z,2864
2023-06-14T09:12:03.000Z,2836
2023-06-14T09:13:42.053Z,2828
2023-06-14T09:14:35.000Z,2792
2023-06-14T09:16:14.691Z,2764
2023-06-14T09:17:30.634Z,2748
2023-06-14T09:17:52.000Z,2808
2023-06-14T09:18:23.000Z,2740
2023-06-14T09:19:39.000Z,2740
2023-06-14T09:21:18.231Z,2756
2023-06-14T09:22:11.000Z,2780
2023-06-14T09:23:50.618Z,2800
2023-06-14T09:26:23.006Z,2820
2023-06-14T09:27:16.000Z,2832
2023-06-14T09:28:55.393Z,2844
2023-06-14T09:29:48.000Z,2864
2023-06-14T09:31:05.000Z,2880
2023-06-14T09:32:21.000Z,2892
2023-06-14T09:33:37.000Z,2908
2023-06-14T09:34:52.000Z,2908
2023-06-14T09:36:31.572Z,2720
2023-06-14T09:37:47.766Z,2584
2023-06-14T09:39:03.960Z,2916
2023-06-14T09:39:57.000Z,2920
2023-06-14T09:41:36.348Z,2924
2023-06-14T09:41:58.000Z,2844
2023-06-14T09:42:52.542Z,2920
2023-06-14T09:44:08.735Z,2892
2023-06-14T09:45:24.929Z,2868
2023-06-14T09:46:41.367Z,2848
2023-06-14T09:47:57.318Z,2836
2023-06-14T09:50:29.705Z,2836
2023-06-14T09:51:44.916Z,2824
2023-06-14T09:52:38.000Z,2808
2023-06-14T09:54:17.302Z,2788
2023-06-14T09:55:10.000Z,2784
2023-06-14T09:56:49.690Z,2764
2023-06-14T09:57:43.000Z,2756
2023-06-14T09:59:22.319Z,2752
2023-06-14T10:00:15.000Z,2760
2023-06-14T10:01:31.000Z,2764
2023-06-14T10:02:16.000Z,2832
2023-06-14T10:03:10.658Z,2768
2023-06-14T10:04:04.000Z,2776
2023-06-14T10:05:20.000Z,2780
2023-06-14T10:06:36.000Z,2804
2023-06-14T10:08:14.693Z,2804
2023-06-14T10:08:36.000Z,2756
2023-06-14T10:10:24.000Z,2852
2023-06-14T10:12:03.278Z,2832
2023-06-14T10:12:56.000Z,2788
2023-06-14T10:14:12.000Z,2816
2023-06-14T10:17:06.829Z,2748
2023-06-14T10:18:00.000Z,2744
2023-06-14T10:19:16.000Z,2748
2023-06-14T10:20:55.410Z,2744
2023-06-14T10:21:48.000Z,2740
2023-06-14T10:23:05.000Z,2748
2023-06-14T10:24:21.000Z,2756
2023-06-14T10:25:37.000Z,2764
2023-06-14T10:26:53.000Z,2784
2023-06-14T10:28:32.818Z,2812
2023-06-14T10:29:49.031Z,2824
2023-06-14T10:30:42.000Z,2820
2023-06-14T10:31:57.000Z,2876
2023-06-14T10:33:13.000Z,2960
2023-06-14T10:34:29.000Z,3020
2023-06-14T10:35:45.000Z,2960
2023-06-14T10:37:24.945Z,2888
2023-06-14T10:38:41.139Z,2860
2023-06-14T10:39:34.000Z,2816
2023-06-14T10:40:50.000Z,2848
2023-06-14T10:42:06.000Z,2960
2023-06-14T10:43:23.000Z,2932
2023-06-14T10:45:02.109Z,2808
2023-06-14T10:45:55.000Z,2780
2023-06-14T10:47:11.000Z,2776
2023-06-14T10:48:26.000Z,2776
2023-06-14T10:49:43.000Z,2792
2023-06-14T10:50:59.000Z,2860
2023-06-14T10:52:38.289Z,2896
2023-06-14T10:53:54.484Z,2924
2023-06-14T10:55:10.677Z,2920
2023-06-14T10:56:04.000Z,2932
2023-06-14T10:57:43.065Z,2916
2023-06-14T10:58:36.000Z,2924
2023-06-14T11:00:15.452Z,3024
2023-06-14T11:01:08.000Z,3100
2023-06-14T11:02:25.000Z,3232
2023-06-14T11:03:41.000Z,3072
2023-06-14T11:05:19.244Z,3336
2023-06-14T11:06:35.438Z,3292
2023-06-14T11:08:45.000Z,4056
2023-06-14T11:10:24.019Z,4472
2023-06-14T11:11:40.213Z,4668
2023-06-14T11:12:33.000Z,5048
2023-06-14T11:13:49.000Z,5516
2023-06-14T11:15:28.795Z,5880
2023-06-14T11:16:22.000Z,6296
2023-06-14T11:18:01.183Z,6444
2023-06-14T11:20:10.000Z,6316
2023-06-14T11:21:25.000Z,6204
2023-06-14T11:23:04.973Z,6888
2023-06-14T11:23:58.000Z,8608
2023-06-14T11:25:14.000Z,9588
2023-06-14T11:26:30.000Z,10420
2023-06-14T11:28:09.748Z,11060
2023-06-14T11:29:03.000Z,10684
2023-06-14T11:30:19.000Z,9480
2023-06-14T11:31:58.329Z,8284
2023-06-14T11:33:14.522Z,8968
2023-06-14T11:34:07.000Z,10740
2023-06-14T11:35:24.000Z,11236
2023-06-14T11:36:40.000Z,12012
2023-06-14T11:37:55.000Z,12120
2023-06-14T11:39:11.000Z,11512
2023-06-14T11:40:50.700Z,10896
2023-06-14T11:42:06.894Z,10704
2023-06-14T11:43:23.088Z,10408
2023-06-14T11:44:39.282Z,10064
2023-06-14T11:45:32.000Z,9956
2023-06-14T11:46:48.000Z,10280
2023-06-14T11:48:05.000Z,10332
2023-06-14T11:49:44.058Z,10216
2023-06-14T11:50:37.000Z,10220
2023-06-14T11:51:53.000Z,10000
2023-06-14T11:53:32.639Z,9700
2023-06-14T11:54:25.000Z,10100
2023-06-14T11:56:04.042Z,11312
2023-06-14T11:57:20.235Z,11076
2023-06-14T11:58:13.000Z,10908
2023-06-14T11:58:58.000Z,6740
2023-06-14T11:59:29.000Z,10484
2023-06-14T12:01:08.819Z,9692
2023-06-14T12:02:25.014Z,9328
2023-06-14T12:03:18.000Z,9020
2023-06-14T12:04:57.404Z,8080
2023-06-14T12:07:29.793Z,5584
2023-06-14T12:08:45.988Z,4932
2023-06-14T12:10:02.184Z,4216
2023-06-14T12:10:54.000Z,3748
2023-06-14T12:11:39.000Z,2840
2023-06-14T12:12:10.000Z,3516
2023-06-14T12:13:49.787Z,3332
2023-06-14T12:15:05.981Z,3144
2023-06-14T12:16:22.177Z,3060
2023-06-14T12:17:15.000Z,2984
2023-06-14T12:20:10.762Z,2772
2023-06-14T12:21:04.000Z,2724
2023-06-14T12:22:20.000Z,2684
2023-06-14T12:23:59.349Z,2680
2023-06-14T12:24:52.000Z,2708
2023-06-14T12:26:08.000Z,2772
2023-06-14T12:27:46.950Z,2848
2023-06-14T12:29:03.146Z,2936
2023-06-14T12:29:56.000Z,2864
2023-06-14T12:31:12.000Z,2724
2023-06-14T12:32:28.000Z,2644
2023-06-14T12:33:45.000Z,2620
2023-06-14T12:35:01.000Z,2616
2023-06-14T12:36:17.000Z,2612
2023-06-14T12:37:33.000Z,2604
2023-06-14T12:40:29.152Z,2612
2023-06-14T12:41:22.000Z,2628
2023-06-14T12:42:38.000Z,2728
2023-06-14T12:43:54.000Z,2764
2023-06-14T12:45:09.000Z,2732
2023-06-14T12:46:26.000Z,2768
2023-06-14T12:48:05.095Z,2828
2023-06-14T12:49:21.291Z,2844
2023-06-14T12:50:37.486Z,2944
2023-06-14T12:51:30.000Z,3308
2023-06-14T12:53:09.877Z,3708
2023-06-14T12:54:26.073Z,4004
2023-06-14T12:55:19.000Z,4136
2023-06-14T12:56:35.000Z,4028
2023-06-14T12:57:51.000Z,3528
2023-06-14T12:59:08.000Z,3324
2023-06-14T13:00:24.000Z,3204
2023-06-14T13:02:02.263Z,3484
2023-06-14T13:02:55.000Z,3924
2023-06-14T13:04:34.654Z,4716
2023-06-14T13:05:50.849Z,6172
2023-06-14T13:07:07.045Z,7352
2023-06-14T13:08:00.000Z,7276
2023-06-14T13:09:39.436Z,5724
2023-06-14T13:10:32.000Z,4524
2023-06-14T13:12:11.827Z,4068
2023-06-14T13:13:05.000Z,3560
2023-06-14T13:14:21.000Z,3240
2023-06-14T13:15:37.000Z,3004
2023-06-14T13:17:16.610Z,2580
2023-06-14T13:18:08.000Z,2936
2023-06-14T13:19:25.000Z,3356
2023-06-14T13:21:04.212Z,3892
2023-06-14T13:22:20.648Z,4416
2023-06-14T13:23:36.848Z,4484
2023-06-14T13:24:29.000Z,5636
2023-06-14T13:25:15.000Z,6476
2023-06-14T13:26:08.995Z,6320
2023-06-14T13:27:02.000Z,6776
2023-06-14T13:28:18.000Z,6564
2023-06-14T13:29:34.000Z,6412
2023-06-14T13:31:13.778Z,6760
2023-06-14T13:33:23.000Z,5708
2023-06-14T13:35:01.381Z,4948
2023-06-14T13:36:17.575Z,4448
2023-06-14T13:37:10.000Z,4088
2023-06-14T13:38:49.966Z,4100
2023-06-14T13:39:12.000Z,3488
2023-06-14T13:40:06.162Z,3940
2023-06-14T13:41:22.615Z,3380
2023-06-14T13:41:44.000Z,3580
2023-06-14T13:42:38.553Z,3492
2023-06-14T13:43:31.000Z,3284
2023-06-14T13:45:10.945Z,3280
2023-06-14T13:47:20.000Z,3604
2023-06-14T13:49:52.000Z,3380
2023-06-14T13:51:30.938Z,3164
2023-06-14T13:52:24.000Z,3156
2023-06-14T13:53:40.000Z,3212
2023-06-14T13:54:56.000Z,3076
2023-06-14T13:56:12.000Z,2988
2023-06-14T13:57:51.917Z,2968
2023-06-14T13:59:08.112Z,2960
2023-06-14T14:00:24.308Z,2956
2023-06-14T14:01:40.744Z,2940
2023-06-14T14:02:33.000Z,2916
2023-06-14T14:04:12.894Z,2888
2023-06-14T14:05:06.000Z,2888
2023-06-14T14:06:22.000Z,2896
2023-06-14T14:08:00.745Z,2896
2023-06-14T14:08:22.000Z,4180
2023-06-14T14:08:53.000Z,2992
2023-06-14T14:10:32.888Z,3116
2023-06-14T14:11:49.083Z,3408
2023-06-14T14:13:05.279Z,3828
2023-06-14T14:13:58.000Z,4184
2023-06-14T14:16:30.000Z,3712
2023-06-14T14:18:10.062Z,3468
2023-06-14T14:19:26.257Z,3420
2023-06-14T14:20:19.000Z,3488
2023-06-14T14:21:58.648Z,3640
2023-06-14T14:22:51.000Z,3836
2023-06-14T14:24:07.000Z,3888
2023-06-14T14:25:46.252Z,4044
2023-06-14T14:26:39.000Z,4652
2023-06-14T14:27:55.000Z,5800
2023-06-14T14:29:11.000Z,7324
2023-06-14T14:30:50.055Z,8704
2023-06-14T14:31:43.000Z,8944
2023-06-14T14:32:59.000Z,8480
2023-06-14T14:33:44.000Z,6140
2023-06-14T14:34:15.000Z,7728
2023-06-14T14:35:54.838Z,6840
2023-06-14T14:36:48.000Z,5916
2023-06-14T14:38:27.229Z,5776
2023-06-14T14:39:20.000Z,6096
2023-06-14T14:42:15.815Z,6376
2023-06-14T14:43:09.000Z,6260
2023-06-14T14:44:48.207Z,6012
2023-06-14T14:45:41.000Z,5564
2023-06-14T14:47:19.614Z,5184
2023-06-14T14:48:12.000Z,5144
2023-06-14T14:49:29.000Z,6060
2023-06-14T14:51:08.201Z,6292
2023-06-14T14:52:01.000Z,7248
2023-06-14T14:53:40.593Z,7928
2023-06-14T14:54:56.788Z,8096
2023-06-14T14:56:12.984Z,7524
2023-06-14T14:57:29.179Z,7052
2023-06-14T14:58:22.000Z,6700
2023-06-14T14:59:38.000Z,6396
2023-06-14T15:00:54.000Z,5760
2023-06-14T15:02:11.000Z,4804
2023-06-14T15:03:49.174Z,3732
2023-06-14T15:04:42.000Z,3048
2023-06-14T15:06:21.564Z,3080
2023-06-14T15:07:37.759Z,3164
2023-06-14T15:08:31.000Z,3168
2023-06-14T15:10:10.151Z,3360
2023-06-14T15:11:03.000Z,3928
2023-06-14T15:12:42.542Z,4196
2023-06-14T15:13:35.000Z,4372
2023-06-14T15:14:52.000Z,4696
2023-06-14T15:16:08.000Z,5560
2023-06-14T15:17:24.000Z,6644
2023-06-14T15:18:40.000Z,7564
2023-06-14T15:19:55.000Z,8116
2023-06-14T15:21:57.000Z,3268
2023-06-14T15:22:51.123Z,7044
2023-06-14T15:24:07.566Z,5924
2023-06-14T15:25:23.757Z,4624
2023-06-14T15:26:39.710Z,4120
2023-06-14T15:27:55.906Z,3684
2023-06-14T15:30:05.000Z,3148
2023-06-14T15:31:44.493Z,3188
2023-06-14T15:32:37.000Z,3292
2023-06-14T15:33:53.000Z,3216
2023-06-14T15:35:10.000Z,3220
2023-06-14T15:36:25.000Z,3240
2023-06-14T15:37:41.000Z,3372
2023-06-14T15:39:20.682Z,3796
2023-06-14T15:40:13.000Z,3904
2023-06-14T15:41:53.073Z,4048
2023-06-14T15:42:46.000Z,4344
2023-06-14T15:43:31.000Z,5176
2023-06-14T15:44:25.465Z,4864
2023-06-14T15:45:41.660Z,5400
2023-06-14T15:46:02.000Z,5108
2023-06-14T15:46:34.000Z,5600
2023-06-14T15:47:51.000Z,5500
2023-06-14T15:49:07.000Z,5032
2023-06-14T15:51:39.000Z,5044
2023-06-14T15:54:11.000Z,5412
2023-06-14T15:55:27.000Z,5684
2023-06-14T15:57:06.437Z,6092
2023-06-14T15:58:22.632Z,6120
2023-06-14T15:59:38.828Z,5576
2023-06-14T16:00:55.023Z,4708
2023-06-14T16:03:04.000Z,3836
2023-06-14T16:04:43.611Z,3288
2023-06-14T16:05:36.000Z,3116
2023-06-14T16:06:53.000Z,2824
2023-06-14T16:08:09.000Z,2992
2023-06-14T16:09:24.000Z,2736
2023-06-14T16:11:03.605Z,2780
2023-06-14T16:12:19.800Z,2952
2023-06-14T16:13:13.000Z,3364
2023-06-14T16:14:52.192Z,3520
2023-06-14T16:16:08.387Z,3540
2023-06-14T16:17:01.000Z,3492
2023-06-14T16:18:17.000Z,3280
2023-06-14T16:19:56.974Z,3160
2023-06-14T16:20:50.000Z,3160
2023-06-14T16:22:29.365Z,3208
2023-06-14T16:23:45.560Z,3308
2023-06-14T16:25:01.756Z,3444
2023-06-14T16:25:54.000Z,3568
2023-06-14T16:27:10.000Z,3552
2023-06-14T16:28:26.000Z,3616
2023-06-14T16:30:05.555Z,3928
2023-06-14T16:30:58.000Z,4076
2023-06-14T16:32:15.000Z,4520
2023-06-14T16:33:31.000Z,5264
2023-06-14T16:35:10.338Z,5796
2023-06-14T16:36:03.000Z,5348
2023-06-14T16:37:19.000Z,4928
2023-06-14T16:38:58.924Z,4440
2023-06-14T16:40:15.120Z,3984
2023-06-14T16:41:31.316Z,3716
2023-06-14T16:42:46.529Z,3564
2023-06-14T16:43:39.000Z,3416
2023-06-14T16:44:55.000Z,3124
2023-06-14T16:46:35.116Z,3212
2023-06-14T16:47:28.000Z,2760
2023-06-14T16:49:07.507Z,2784
2023-06-14T16:50:00.000Z,2744
2023-06-14T16:51:16.000Z,2772
2023-06-14T16:52:33.000Z,2820
2023-06-14T16:54:12.290Z,3116
2023-06-14T16:55:05.000Z,3140
2023-06-14T16:56:21.000Z,3120
2023-06-14T16:58:00.877Z,3140
2023-06-14T16:59:16.089Z,3232
2023-06-14T17:00:32.285Z,3400
2023-06-14T17:01:25.000Z,4640
2023-06-14T17:03:04.677Z,9900
2023-06-14T17:03:57.000Z,13072
2023-06-14T17:05:37.070Z,12788
2023-06-14T17:06:30.000Z,12016
2023-06-14T17:07:46.000Z,11812
2023-06-14T17:09:02.000Z,11692
2023-06-14T17:10:18.000Z,11608
2023-06-14T17:11:35.000Z,11200
2023-06-14T17:13:14.247Z,10864
2023-06-14T17:14:30.442Z,10628
2023-06-14T17:15:22.000Z,10412
2023-06-14T17:16:38.000Z,10444
2023-06-14T17:17:55.000Z,10516